Portada
METAR-TAF:

METAR-TAF

Aeroports :

Minneapolis, Minnesota, Estats Units d'Amèrica

latitud: 44-52-59N, longitud: 093-13-44W, altitud: 256 m

Observació

L'informe es va fer fa 55 minuts, a les 14:53 UTC
Vent 3 kt del Nord
Temperatura 5°C
Humitat 65%
Pressió 1029 hPa
Visibilitat: 16.1 km
Cel ennuvolat a una alçada de 3400 ft

METAR: KMSP 231453Z 36003KT 10SM BKN034 05/M01 A3040 RMK AO2 SLP302 T00501011 53019

Hora: 10:48 (15:48 UTC)

Pronòstic

L'informe es va fer fa 1 hora i 7 minuts, a les 14:41 UTC
Pronòstic vàlid del 23 a les 15 UTC al 24 a les 18 UTC
Vent 5 kt del Nord/Nord-Oest
Visibilitat: 10 km
Núvols disperses a una alçada de 3500 ft
A partir de les 24 a les 0200 UTC
Vent 2 kt del Nord-Est
Visibilitat: 10 km
Cel clar
A partir de les 24 a les 1500 UTC
Vent 5 kt del Sud-Est
Visibilitat: 10 km
Cel clar

TAF: KMSP 231441Z 2315/2418 34005KT P6SM SCT035 FM240200 05002KT P6SM SKC FM241500 14005KT P6SM SKC

Observacions i pronòstics meteorològics de més de 4000 aeroports (METAR i TAF).

Les estacions disponibles són els punts grocs i vermells al mapa.

Posi el ratolí al punt desitjat per veure el nom de l'estació.

Feu clic per veure les observacions i els pronòstics meteorològics.

Per canviar el mapa: feu clic els botons verds amb una creu de color negre per apropar; al botó verd amb un guió per allunyar la imatge; o en les fletxes verdes per a mapes adjacents.


METAR-TAF: